sensor_id;sensor_type;location;lat;lon;timestamp;P1;durP1;ratioP1;P2;durP2;ratioP2
67816;SDS011;54614;47.576;7.524;2024-03-02T00:02:14;1.60;;;1.50;;
67816;SDS011;54614;47.576;7.524;2024-03-02T00:04:40;2.80;;;1.40;;
67816;SDS011;54614;47.576;7.524;2024-03-02T00:07:10;1.60;;;1.50;;
67816;SDS011;54614;47.576;7.524;2024-03-02T00:09:39;1.60;;;1.50;;
67816;SDS011;54614;47.576;7.524;2024-03-02T00:12:05;1.57;;;1.47;;
67816;SDS011;54614;47.576;7.524;2024-03-02T00:14:32;1.70;;;1.60;;
67816;SDS011;54614;47.576;7.524;2024-03-02T00:16:58;1.60;;;1.50;;
67816;SDS011;54614;47.576;7.524;2024-03-02T00:19:24;1.53;;;1.50;;
67816;SDS011;54614;47.576;7.524;2024-03-02T00:21:50;1.53;;;1.43;;
67816;SDS011;54614;47.576;7.524;2024-03-02T00:24:20;1.37;;;1.33;;
67816;SDS011;54614;47.576;7.524;2024-03-02T00:26:56;1.70;;;1.60;;
67816;SDS011;54614;47.576;7.524;2024-03-02T00:29:22;1.60;;;1.50;;
67816;SDS011;54614;47.576;7.524;2024-03-02T00:31:48;1.33;;;1.33;;
67816;SDS011;54614;47.576;7.524;2024-03-02T00:34:14;1.50;;;1.50;;
67816;SDS011;54614;47.576;7.524;2024-03-02T00:36:41;1.47;;;1.40;;
67816;SDS011;54614;47.576;7.524;2024-03-02T00:39:07;1.70;;;1.60;;
67816;SDS011;54614;47.576;7.524;2024-03-02T00:41:33;1.70;;;1.60;;
67816;SDS011;54614;47.576;7.524;2024-03-02T00:44:04;1.80;;;1.70;;
67816;SDS011;54614;47.576;7.524;2024-03-02T00:46:39;1.80;;;1.70;;
67816;SDS011;54614;47.576;7.524;2024-03-02T00:51:47;1.80;;;1.70;;
67816;SDS011;54614;47.576;7.524;2024-03-02T00:54:22;1.90;;;1.80;;
67816;SDS011;54614;47.576;7.524;2024-03-02T00:56:53;3.13;;;2.00;;
67816;SDS011;54614;47.576;7.524;2024-03-02T00:59:20;1.90;;;1.80;;
67816;SDS011;54614;47.576;7.524;2024-03-02T01:01:48;1.90;;;1.80;;
67816;SDS011;54614;47.576;7.524;2024-03-02T01:04:14;2.13;;;1.93;;
67816;SDS011;54614;47.576;7.524;2024-03-02T01:06:42;2.03;;;1.93;;
67816;SDS011;54614;47.576;7.524;2024-03-02T01:09:08;1.80;;;1.70;;
67816;SDS011;54614;47.576;7.524;2024-03-02T01:11:34;2.10;;;2.00;;
67816;SDS011;54614;47.576;7.524;2024-03-02T01:14:00;1.90;;;1.80;;
67816;SDS011;54614;47.576;7.524;2024-03-02T01:16:25;2.30;;;2.10;;
67816;SDS011;54614;47.576;7.524;2024-03-02T01:18:51;1.90;;;1.80;;
67816;SDS011;54614;47.576;7.524;2024-03-02T01:21:17;2.30;;;1.97;;
67816;SDS011;54614;47.576;7.524;2024-03-02T01:23:43;2.10;;;1.90;;
67816;SDS011;54614;47.576;7.524;2024-03-02T01:26:09;1.90;;;1.80;;
67816;SDS011;54614;47.576;7.524;2024-03-02T01:28:35;1.90;;;1.80;;
67816;SDS011;54614;47.576;7.524;2024-03-02T01:31:00;1.70;;;1.60;;
67816;SDS011;54614;47.576;7.524;2024-03-02T01:33:27;1.63;;;1.53;;
67816;SDS011;54614;47.576;7.524;2024-03-02T01:35:52;1.70;;;1.60;;
67816;SDS011;54614;47.576;7.524;2024-03-02T01:38:18;1.80;;;1.70;;
67816;SDS011;54614;47.576;7.524;2024-03-02T01:40:44;1.80;;;1.70;;
67816;SDS011;54614;47.576;7.524;2024-03-02T01:43:10;1.60;;;1.50;;
67816;SDS011;54614;47.576;7.524;2024-03-02T01:45:36;1.53;;;1.43;;
67816;SDS011;54614;47.576;7.524;2024-03-02T01:48:04;1.80;;;1.70;;
67816;SDS011;54614;47.576;7.524;2024-03-02T01:50:32;1.70;;;1.60;;
67816;SDS011;54614;47.576;7.524;2024-03-02T01:52:59;2.37;;;1.50;;
67816;SDS011;54614;47.576;7.524;2024-03-02T01:55:26;1.60;;;1.50;;
67816;SDS011;54614;47.576;7.524;2024-03-02T01:57:55;1.60;;;1.50;;
67816;SDS011;54614;47.576;7.524;2024-03-02T02:00:21;1.70;;;1.60;;
67816;SDS011;54614;47.576;7.524;2024-03-02T02:02:49;1.50;;;1.40;;
67816;SDS011;54614;47.576;7.524;2024-03-02T02:05:15;2.07;;;1.57;;
67816;SDS011;54614;47.576;7.524;2024-03-02T02:07:42;1.50;;;1.43;;
67816;SDS011;54614;47.576;7.524;2024-03-02T02:10:08;1.60;;;1.50;;
67816;SDS011;54614;47.576;7.524;2024-03-02T02:12:35;1.60;;;1.50;;
67816;SDS011;54614;47.576;7.524;2024-03-02T02:15:03;1.40;;;1.33;;
67816;SDS011;54614;47.576;7.524;2024-03-02T02:17:46;1.70;;;1.60;;
67816;SDS011;54614;47.576;7.524;2024-03-02T02:20:12;1.63;;;1.53;;
67816;SDS011;54614;47.576;7.524;2024-03-02T02:22:38;1.70;;;1.60;;
67816;SDS011;54614;47.576;7.524;2024-03-02T02:25:04;1.80;;;1.70;;
67816;SDS011;54614;47.576;7.524;2024-03-02T02:27:31;1.63;;;1.53;;
67816;SDS011;54614;47.576;7.524;2024-03-02T02:29:56;1.60;;;1.50;;
67816;SDS011;54614;47.576;7.524;2024-03-02T02:32:22;1.63;;;1.53;;
67816;SDS011;54614;47.576;7.524;2024-03-02T02:34:52;1.40;;;1.37;;
67816;SDS011;54614;47.576;7.524;2024-03-02T02:37:18;1.60;;;1.50;;
67816;SDS011;54614;47.576;7.524;2024-03-02T02:39:43;1.70;;;1.60;;
67816;SDS011;54614;47.576;7.524;2024-03-02T02:42:11;1.57;;;1.47;;
67816;SDS011;54614;47.576;7.524;2024-03-02T02:44:37;1.70;;;1.60;;
67816;SDS011;54614;47.576;7.524;2024-03-02T02:47:03;1.30;;;1.30;;
67816;SDS011;54614;47.576;7.524;2024-03-02T02:49:29;1.60;;;1.50;;
67816;SDS011;54614;47.576;7.524;2024-03-02T02:51:54;1.60;;;1.50;;
67816;SDS011;54614;47.576;7.524;2024-03-02T02:54:20;1.50;;;1.40;;
67816;SDS011;54614;47.576;7.524;2024-03-02T02:56:46;1.60;;;1.50;;
67816;SDS011;54614;47.576;7.524;2024-03-02T02:59:11;1.63;;;1.53;;
67816;SDS011;54614;47.576;7.524;2024-03-02T03:01:37;1.57;;;1.47;;
67816;SDS011;54614;47.576;7.524;2024-03-02T03:04:03;1.30;;;1.30;;
67816;SDS011;54614;47.576;7.524;2024-03-02T03:06:29;1.57;;;1.47;;
67816;SDS011;54614;47.576;7.524;2024-03-02T03:08:54;1.53;;;1.43;;
67816;SDS011;54614;47.576;7.524;2024-03-02T03:11:20;1.70;;;1.60;;
67816;SDS011;54614;47.576;7.524;2024-03-02T03:13:47;1.70;;;1.60;;
67816;SDS011;54614;47.576;7.524;2024-03-02T03:16:13;1.60;;;1.50;;
67816;SDS011;54614;47.576;7.524;2024-03-02T03:18:39;1.73;;;1.63;;
67816;SDS011;54614;47.576;7.524;2024-03-02T03:21:04;1.70;;;1.60;;
67816;SDS011;54614;47.576;7.524;2024-03-02T03:23:30;1.40;;;1.40;;
67816;SDS011;54614;47.576;7.524;2024-03-02T03:25:56;1.57;;;1.50;;
67816;SDS011;54614;47.576;7.524;2024-03-02T03:28:22;1.60;;;1.50;;
67816;SDS011;54614;47.576;7.524;2024-03-02T03:30:47;1.47;;;1.37;;
67816;SDS011;54614;47.576;7.524;2024-03-02T03:33:13;1.40;;;1.40;;
67816;SDS011;54614;47.576;7.524;2024-03-02T03:35:39;1.50;;;1.40;;
67816;SDS011;54614;47.576;7.524;2024-03-02T03:38:04;1.67;;;1.57;;
67816;SDS011;54614;47.576;7.524;2024-03-02T03:40:30;1.63;;;1.53;;
67816;SDS011;54614;47.576;7.524;2024-03-02T03:42:56;1.80;;;1.70;;
67816;SDS011;54614;47.576;7.524;2024-03-02T03:45:22;1.50;;;1.40;;
67816;SDS011;54614;47.576;7.524;2024-03-02T03:47:50;1.70;;;1.60;;
67816;SDS011;54614;47.576;7.524;2024-03-02T03:50:15;1.60;;;1.50;;
67816;SDS011;54614;47.576;7.524;2024-03-02T03:52:41;1.60;;;1.50;;
67816;SDS011;54614;47.576;7.524;2024-03-02T03:55:07;1.60;;;1.50;;
67816;SDS011;54614;47.576;7.524;2024-03-02T03:57:33;1.37;;;1.33;;
67816;SDS011;54614;47.576;7.524;2024-03-02T03:59:59;1.60;;;1.50;;
67816;SDS011;54614;47.576;7.524;2024-03-02T04:02:25;1.50;;;1.40;;
67816;SDS011;54614;47.576;7.524;2024-03-02T04:04:51;1.30;;;1.30;;
67816;SDS011;54614;47.576;7.524;2024-03-02T04:07:16;1.30;;;1.30;;
67816;SDS011;54614;47.576;7.524;2024-03-02T04:09:43;1.60;;;1.50;;
67816;SDS011;54614;47.576;7.524;2024-03-02T04:12:08;1.50;;;1.40;;
67816;SDS011;54614;47.576;7.524;2024-03-02T04:14:34;1.80;;;1.70;;
67816;SDS011;54614;47.576;7.524;2024-03-02T04:17:00;1.30;;;1.30;;
67816;SDS011;54614;47.576;7.524;2024-03-02T04:19:26;1.50;;;1.40;;
67816;SDS011;54614;47.576;7.524;2024-03-02T04:21:52;1.13;;;1.13;;
67816;SDS011;54614;47.576;7.524;2024-03-02T04:24:17;1.50;;;1.40;;
67816;SDS011;54614;47.576;7.524;2024-03-02T04:26:43;1.30;;;1.30;;
67816;SDS011;54614;47.576;7.524;2024-03-02T04:29:09;1.63;;;1.53;;
67816;SDS011;54614;47.576;7.524;2024-03-02T04:31:35;1.20;;;1.20;;
67816;SDS011;54614;47.576;7.524;2024-03-02T04:34:00;1.30;;;1.30;;
67816;SDS011;54614;47.576;7.524;2024-03-02T04:36:26;1.60;;;1.50;;
67816;SDS011;54614;47.576;7.524;2024-03-02T04:38:52;1.50;;;1.40;;
67816;SDS011;54614;47.576;7.524;2024-03-02T04:41:18;1.60;;;1.50;;
67816;SDS011;54614;47.576;7.524;2024-03-02T04:43:44;1.40;;;1.30;;
67816;SDS011;54614;47.576;7.524;2024-03-02T04:46:10;1.33;;;1.30;;
67816;SDS011;54614;47.576;7.524;2024-03-02T04:48:35;1.40;;;1.30;;
67816;SDS011;54614;47.576;7.524;2024-03-02T04:51:01;1.50;;;1.40;;
67816;SDS011;54614;47.576;7.524;2024-03-02T04:53:27;1.57;;;1.47;;
67816;SDS011;54614;47.576;7.524;2024-03-02T04:55:53;1.40;;;1.30;;
67816;SDS011;54614;47.576;7.524;2024-03-02T04:58:18;1.23;;;1.23;;
67816;SDS011;54614;47.576;7.524;2024-03-02T05:00:44;1.47;;;1.40;;
67816;SDS011;54614;47.576;7.524;2024-03-02T05:03:11;1.50;;;1.40;;
67816;SDS011;54614;47.576;7.524;2024-03-02T05:05:38;1.73;;;1.63;;
67816;SDS011;54614;47.576;7.524;2024-03-02T05:08:04;1.50;;;1.40;;
67816;SDS011;54614;47.576;7.524;2024-03-02T05:10:30;1.23;;;1.23;;
67816;SDS011;54614;47.576;7.524;2024-03-02T05:12:56;1.47;;;1.37;;
67816;SDS011;54614;47.576;7.524;2024-03-02T05:15:22;1.47;;;1.37;;
67816;SDS011;54614;47.576;7.524;2024-03-02T05:17:47;1.47;;;1.37;;
67816;SDS011;54614;47.576;7.524;2024-03-02T05:20:13;1.70;;;1.60;;
67816;SDS011;54614;47.576;7.524;2024-03-02T05:22:39;1.40;;;1.30;;
67816;SDS011;54614;47.576;7.524;2024-03-02T05:25:05;1.53;;;1.43;;
67816;SDS011;54614;47.576;7.524;2024-03-02T05:27:32;1.40;;;1.40;;
67816;SDS011;54614;47.576;7.524;2024-03-02T05:29:58;1.20;;;1.20;;
67816;SDS011;54614;47.576;7.524;2024-03-02T05:32:24;1.20;;;1.20;;
67816;SDS011;54614;47.576;7.524;2024-03-02T05:34:50;1.50;;;1.40;;
67816;SDS011;54614;47.576;7.524;2024-03-02T05:37:16;1.40;;;1.30;;
67816;SDS011;54614;47.576;7.524;2024-03-02T05:39:42;1.40;;;1.30;;
67816;SDS011;54614;47.576;7.524;2024-03-02T05:42:08;1.43;;;1.33;;
67816;SDS011;54614;47.576;7.524;2024-03-02T05:44:35;1.33;;;1.33;;
67816;SDS011;54614;47.576;7.524;2024-03-02T05:47:02;1.50;;;1.40;;
67816;SDS011;54614;47.576;7.524;2024-03-02T05:49:28;1.50;;;1.40;;
67816;SDS011;54614;47.576;7.524;2024-03-02T05:51:54;1.17;;;1.17;;
67816;SDS011;54614;47.576;7.524;2024-03-02T05:54:20;1.40;;;1.30;;
67816;SDS011;54614;47.576;7.524;2024-03-02T05:56:46;1.40;;;1.30;;
67816;SDS011;54614;47.576;7.524;2024-03-02T05:59:12;1.60;;;1.50;;
67816;SDS011;54614;47.576;7.524;2024-03-02T06:01:38;1.20;;;1.20;;
67816;SDS011;54614;47.576;7.524;2024-03-02T06:04:09;1.70;;;1.60;;
67816;SDS011;54614;47.576;7.524;2024-03-02T06:06:38;1.20;;;1.20;;
67816;SDS011;54614;47.576;7.524;2024-03-02T06:09:05;1.40;;;1.40;;
67816;SDS011;54614;47.576;7.524;2024-03-02T06:11:38;1.20;;;1.20;;
67816;SDS011;54614;47.576;7.524;2024-03-02T06:14:05;1.20;;;1.20;;
67816;SDS011;54614;47.576;7.524;2024-03-02T06:16:33;1.50;;;1.40;;
67816;SDS011;54614;47.576;7.524;2024-03-02T06:19:00;1.50;;;1.40;;
67816;SDS011;54614;47.576;7.524;2024-03-02T06:21:27;1.20;;;1.20;;
67816;SDS011;54614;47.576;7.524;2024-03-02T06:23:53;1.23;;;1.23;;
67816;SDS011;54614;47.576;7.524;2024-03-02T06:26:19;1.30;;;1.30;;
67816;SDS011;54614;47.576;7.524;2024-03-02T06:28:45;1.50;;;1.40;;
67816;SDS011;54614;47.576;7.524;2024-03-02T06:31:11;1.20;;;1.20;;
67816;SDS011;54614;47.576;7.524;2024-03-02T06:33:37;1.37;;;1.37;;
67816;SDS011;54614;47.576;7.524;2024-03-02T06:36:04;1.20;;;1.20;;
67816;SDS011;54614;47.576;7.524;2024-03-02T06:38:30;1.40;;;1.40;;
67816;SDS011;54614;47.576;7.524;2024-03-02T06:40:58;1.30;;;1.30;;
67816;SDS011;54614;47.576;7.524;2024-03-02T06:43:24;1.30;;;1.30;;
67816;SDS011;54614;47.576;7.524;2024-03-02T06:45:50;1.37;;;1.30;;
67816;SDS011;54614;47.576;7.524;2024-03-02T06:48:16;1.30;;;1.30;;
67816;SDS011;54614;47.576;7.524;2024-03-02T06:50:49;1.40;;;1.30;;
67816;SDS011;54614;47.576;7.524;2024-03-02T06:53:17;1.40;;;1.30;;
67816;SDS011;54614;47.576;7.524;2024-03-02T06:55:43;1.57;;;1.47;;
67816;SDS011;54614;47.576;7.524;2024-03-02T06:58:12;1.33;;;1.33;;
67816;SDS011;54614;47.576;7.524;2024-03-02T07:00:40;1.43;;;1.40;;
67816;SDS011;54614;47.576;7.524;2024-03-02T07:03:12;1.50;;;1.40;;
67816;SDS011;54614;47.576;7.524;2024-03-02T07:05:38;1.60;;;1.50;;
67816;SDS011;54614;47.576;7.524;2024-03-02T07:08:04;1.23;;;1.23;;
67816;SDS011;54614;47.576;7.524;2024-03-02T07:10:31;1.20;;;1.20;;
67816;SDS011;54614;47.576;7.524;2024-03-02T07:12:56;1.30;;;1.30;;
67816;SDS011;54614;47.576;7.524;2024-03-02T07:15:22;1.30;;;1.30;;
67816;SDS011;54614;47.576;7.524;2024-03-02T07:18:14;1.20;;;1.20;;
67816;SDS011;54614;47.576;7.524;2024-03-02T07:20:40;1.20;;;1.20;;
67816;SDS011;54614;47.576;7.524;2024-03-02T07:23:05;1.27;;;1.27;;
67816;SDS011;54614;47.576;7.524;2024-03-02T07:25:31;1.30;;;1.30;;
67816;SDS011;54614;47.576;7.524;2024-03-02T07:27:57;1.20;;;1.20;;
67816;SDS011;54614;47.576;7.524;2024-03-02T07:30:23;1.20;;;1.20;;
67816;SDS011;54614;47.576;7.524;2024-03-02T07:32:52;1.53;;;1.43;;
67816;SDS011;54614;47.576;7.524;2024-03-02T07:35:17;1.10;;;1.10;;
67816;SDS011;54614;47.576;7.524;2024-03-02T07:37:43;1.20;;;1.20;;
67816;SDS011;54614;47.576;7.524;2024-03-02T07:40:10;1.03;;;1.03;;
67816;SDS011;54614;47.576;7.524;2024-03-02T07:42:38;1.30;;;1.30;;
67816;SDS011;54614;47.576;7.524;2024-03-02T07:45:05;1.17;;;1.17;;
67816;SDS011;54614;47.576;7.524;2024-03-02T07:47:33;1.20;;;1.20;;
67816;SDS011;54614;47.576;7.524;2024-03-02T07:49:59;1.27;;;1.27;;
67816;SDS011;54614;47.576;7.524;2024-03-02T07:52:25;1.33;;;1.30;;
67816;SDS011;54614;47.576;7.524;2024-03-02T07:54:51;1.13;;;1.13;;
67816;SDS011;54614;47.576;7.524;2024-03-02T07:57:17;1.13;;;1.13;;
67816;SDS011;54614;47.576;7.524;2024-03-02T07:59:43;1.10;;;1.10;;
67816;SDS011;54614;47.576;7.524;2024-03-02T08:02:09;1.20;;;1.20;;
67816;SDS011;54614;47.576;7.524;2024-03-02T08:04:35;1.13;;;1.13;;
67816;SDS011;54614;47.576;7.524;2024-03-02T08:07:02;1.27;;;1.27;;
67816;SDS011;54614;47.576;7.524;2024-03-02T08:09:28;1.13;;;1.13;;
67816;SDS011;54614;47.576;7.524;2024-03-02T08:11:53;1.33;;;1.23;;
67816;SDS011;54614;47.576;7.524;2024-03-02T08:14:19;1.50;;;1.40;;
67816;SDS011;54614;47.576;7.524;2024-03-02T08:16:45;1.20;;;1.20;;
67816;SDS011;54614;47.576;7.524;2024-03-02T08:19:11;1.20;;;1.20;;
67816;SDS011;54614;47.576;7.524;2024-03-02T08:21:37;1.10;;;1.10;;
67816;SDS011;54614;47.576;7.524;2024-03-02T08:24:03;1.20;;;1.20;;
67816;SDS011;54614;47.576;7.524;2024-03-02T08:26:29;1.13;;;1.13;;
67816;SDS011;54614;47.576;7.524;2024-03-02T08:28:56;1.27;;;1.27;;
67816;SDS011;54614;47.576;7.524;2024-03-02T08:31:23;1.27;;;1.27;;
67816;SDS011;54614;47.576;7.524;2024-03-02T08:33:49;1.13;;;1.13;;
67816;SDS011;54614;47.576;7.524;2024-03-02T08:36:15;1.20;;;1.20;;
67816;SDS011;54614;47.576;7.524;2024-03-02T08:38:41;1.37;;;1.27;;
67816;SDS011;54614;47.576;7.524;2024-03-02T08:41:07;1.27;;;1.27;;
67816;SDS011;54614;47.576;7.524;2024-03-02T08:43:33;1.30;;;1.20;;
67816;SDS011;54614;47.576;7.524;2024-03-02T08:45:59;1.23;;;1.23;;
67816;SDS011;54614;47.576;7.524;2024-03-02T08:48:25;1.00;;;1.00;;
67816;SDS011;54614;47.576;7.524;2024-03-02T08:50:51;1.10;;;1.10;;
67816;SDS011;54614;47.576;7.524;2024-03-02T08:53:16;1.07;;;1.07;;
67816;SDS011;54614;47.576;7.524;2024-03-02T08:55:44;1.13;;;1.13;;
67816;SDS011;54614;47.576;7.524;2024-03-02T08:58:13;1.40;;;1.30;;
67816;SDS011;54614;47.576;7.524;2024-03-02T09:00:40;1.30;;;1.27;;
67816;SDS011;54614;47.576;7.524;2024-03-02T09:03:06;1.10;;;1.10;;
67816;SDS011;54614;47.576;7.524;2024-03-02T09:05:33;1.20;;;1.20;;
67816;SDS011;54614;47.576;7.524;2024-03-02T09:07:58;1.30;;;1.20;;
67816;SDS011;54614;47.576;7.524;2024-03-02T09:10:24;1.23;;;1.23;;
67816;SDS011;54614;47.576;7.524;2024-03-02T09:12:50;1.20;;;1.20;;
67816;SDS011;54614;47.576;7.524;2024-03-02T09:15:15;1.20;;;1.20;;
67816;SDS011;54614;47.576;7.524;2024-03-02T09:17:41;1.37;;;1.30;;
67816;SDS011;54614;47.576;7.524;2024-03-02T09:20:07;1.30;;;1.20;;
67816;SDS011;54614;47.576;7.524;2024-03-02T09:22:33;1.20;;;1.20;;
67816;SDS011;54614;47.576;7.524;2024-03-02T09:24:59;1.10;;;1.10;;
67816;SDS011;54614;47.576;7.524;2024-03-02T09:27:25;1.30;;;1.30;;
67816;SDS011;54614;47.576;7.524;2024-03-02T09:29:51;1.20;;;1.20;;
67816;SDS011;54614;47.576;7.524;2024-03-02T09:32:16;1.20;;;1.20;;
67816;SDS011;54614;47.576;7.524;2024-03-02T09:34:42;1.33;;;1.30;;
67816;SDS011;54614;47.576;7.524;2024-03-02T09:37:08;1.20;;;1.20;;
67816;SDS011;54614;47.576;7.524;2024-03-02T09:39:34;1.20;;;1.20;;
67816;SDS011;54614;47.576;7.524;2024-03-02T09:42:00;1.30;;;1.20;;
67816;SDS011;54614;47.576;7.524;2024-03-02T09:44:26;1.10;;;1.10;;
67816;SDS011;54614;47.576;7.524;2024-03-02T09:46:51;1.20;;;1.20;;
67816;SDS011;54614;47.576;7.524;2024-03-02T09:49:17;1.20;;;1.20;;
67816;SDS011;54614;47.576;7.524;2024-03-02T09:51:47;1.10;;;1.10;;
67816;SDS011;54614;47.576;7.524;2024-03-02T09:54:15;1.10;;;1.10;;
67816;SDS011;54614;47.576;7.524;2024-03-02T09:56:41;1.10;;;1.10;;
67816;SDS011;54614;47.576;7.524;2024-03-02T09:59:07;1.27;;;1.27;;
67816;SDS011;54614;47.576;7.524;2024-03-02T10:01:33;1.10;;;1.10;;
67816;SDS011;54614;47.576;7.524;2024-03-02T10:03:59;1.10;;;1.10;;
67816;SDS011;54614;47.576;7.524;2024-03-02T10:06:26;1.10;;;1.10;;
67816;SDS011;54614;47.576;7.524;2024-03-02T10:08:54;1.20;;;1.20;;
67816;SDS011;54614;47.576;7.524;2024-03-02T10:16:33;1.07;;;1.07;;
67816;SDS011;54614;47.576;7.524;2024-03-02T10:19:22;1.10;;;1.10;;
67816;SDS011;54614;47.576;7.524;2024-03-02T10:21:49;1.10;;;1.10;;
67816;SDS011;54614;47.576;7.524;2024-03-02T10:24:18;1.17;;;1.17;;
67816;SDS011;54614;47.576;7.524;2024-03-02T10:26:46;1.00;;;1.00;;
67816;SDS011;54614;47.576;7.524;2024-03-02T10:29:12;1.10;;;1.10;;
67816;SDS011;54614;47.576;7.524;2024-03-02T10:31:39;1.00;;;1.00;;
67816;SDS011;54614;47.576;7.524;2024-03-02T10:34:07;1.20;;;1.20;;
67816;SDS011;54614;47.576;7.524;2024-03-02T10:36:35;1.10;;;1.10;;
67816;SDS011;54614;47.576;7.524;2024-03-02T10:39:06;1.13;;;1.13;;
67816;SDS011;54614;47.576;7.524;2024-03-02T10:41:33;1.00;;;1.00;;
67816;SDS011;54614;47.576;7.524;2024-03-02T10:44:01;1.10;;;1.10;;
67816;SDS011;54614;47.576;7.524;2024-03-02T10:46:33;1.00;;;1.00;;
67816;SDS011;54614;47.576;7.524;2024-03-02T10:49:02;1.10;;;1.10;;
67816;SDS011;54614;47.576;7.524;2024-03-02T10:51:31;1.10;;;1.10;;
67816;SDS011;54614;47.576;7.524;2024-03-02T10:54:01;1.27;;;1.27;;
67816;SDS011;54614;47.576;7.524;2024-03-02T10:56:29;1.10;;;1.10;;
67816;SDS011;54614;47.576;7.524;2024-03-02T10:59:03;1.20;;;1.20;;
67816;SDS011;54614;47.576;7.524;2024-03-02T11:01:40;1.10;;;1.10;;
67816;SDS011;54614;47.576;7.524;2024-03-02T11:04:11;1.10;;;1.10;;
67816;SDS011;54614;47.576;7.524;2024-03-02T11:06:43;1.10;;;1.10;;
67816;SDS011;54614;47.576;7.524;2024-03-02T11:09:19;1.13;;;1.13;;
67816;SDS011;54614;47.576;7.524;2024-03-02T11:14:48;1.10;;;1.10;;
67816;SDS011;54614;47.576;7.524;2024-03-02T11:17:19;1.17;;;1.17;;
67816;SDS011;54614;47.576;7.524;2024-03-02T11:19:45;1.20;;;1.20;;
67816;SDS011;54614;47.576;7.524;2024-03-02T11:22:13;1.10;;;1.10;;
67816;SDS011;54614;47.576;7.524;2024-03-02T11:24:47;1.10;;;1.10;;
67816;SDS011;54614;47.576;7.524;2024-03-02T11:33:01;1.10;;;1.10;;
67816;SDS011;54614;47.576;7.524;2024-03-02T11:35:37;1.20;;;1.20;;
67816;SDS011;54614;47.576;7.524;2024-03-02T11:38:13;1.10;;;1.10;;
67816;SDS011;54614;47.576;7.524;2024-03-02T11:40:39;1.13;;;1.13;;
67816;SDS011;54614;47.576;7.524;2024-03-02T11:43:06;1.00;;;1.00;;
67816;SDS011;54614;47.576;7.524;2024-03-02T11:45:36;1.10;;;1.10;;
67816;SDS011;54614;47.576;7.524;2024-03-02T11:48:08;1.20;;;1.20;;
67816;SDS011;54614;47.576;7.524;2024-03-02T11:50:43;1.10;;;1.10;;
67816;SDS011;54614;47.576;7.524;2024-03-02T11:53:14;1.13;;;1.13;;
67816;SDS011;54614;47.576;7.524;2024-03-02T11:55:42;1.00;;;1.00;;
67816;SDS011;54614;47.576;7.524;2024-03-02T11:58:14;1.00;;;1.00;;
67816;SDS011;54614;47.576;7.524;2024-03-02T12:00:42;1.10;;;1.10;;
67816;SDS011;54614;47.576;7.524;2024-03-02T12:03:09;1.10;;;1.10;;
67816;SDS011;54614;47.576;7.524;2024-03-02T12:05:39;1.10;;;1.10;;
67816;SDS011;54614;47.576;7.524;2024-03-02T12:08:06;1.00;;;1.00;;
67816;SDS011;54614;47.576;7.524;2024-03-02T12:10:33;1.10;;;1.10;;
67816;SDS011;54614;47.576;7.524;2024-03-02T12:13:04;1.00;;;1.00;;
67816;SDS011;54614;47.576;7.524;2024-03-02T12:15:33;0.93;;;0.93;;
67816;SDS011;54614;47.576;7.524;2024-03-02T12:18:04;1.00;;;1.00;;
67816;SDS011;54614;47.576;7.524;2024-03-02T12:20:31;0.90;;;0.90;;
67816;SDS011;54614;47.576;7.524;2024-03-02T12:23:00;1.00;;;1.00;;
67816;SDS011;54614;47.576;7.524;2024-03-02T12:25:30;1.00;;;1.00;;
67816;SDS011;54614;47.576;7.524;2024-03-02T12:27:59;1.20;;;1.20;;
67816;SDS011;54614;47.576;7.524;2024-03-02T12:30:26;1.00;;;1.00;;
67816;SDS011;54614;47.576;7.524;2024-03-02T12:33:00;1.00;;;1.00;;
67816;SDS011;54614;47.576;7.524;2024-03-02T12:35:26;1.00;;;1.00;;
67816;SDS011;54614;47.576;7.524;2024-03-02T12:37:52;1.20;;;1.20;;
67816;SDS011;54614;47.576;7.524;2024-03-02T12:40:19;1.07;;;1.07;;
67816;SDS011;54614;47.576;7.524;2024-03-02T12:42:47;1.00;;;1.00;;
67816;SDS011;54614;47.576;7.524;2024-03-02T12:45:15;1.10;;;1.10;;
67816;SDS011;54614;47.576;7.524;2024-03-02T12:47:48;1.10;;;1.10;;
67816;SDS011;54614;47.576;7.524;2024-03-02T12:50:16;1.10;;;1.10;;
67816;SDS011;54614;47.576;7.524;2024-03-02T12:52:43;1.10;;;1.10;;
67816;SDS011;54614;47.576;7.524;2024-03-02T12:55:09;0.97;;;0.97;;
67816;SDS011;54614;47.576;7.524;2024-03-02T12:57:35;1.00;;;1.00;;
67816;SDS011;54614;47.576;7.524;2024-03-02T13:00:02;1.00;;;1.00;;
67816;SDS011;54614;47.576;7.524;2024-03-02T13:02:39;1.03;;;1.03;;
67816;SDS011;54614;47.576;7.524;2024-03-02T13:05:07;1.10;;;1.10;;
67816;SDS011;54614;47.576;7.524;2024-03-02T13:07:37;1.00;;;1.00;;
67816;SDS011;54614;47.576;7.524;2024-03-02T13:10:04;1.10;;;1.10;;
67816;SDS011;54614;47.576;7.524;2024-03-02T13:12:33;0.90;;;0.90;;
67816;SDS011;54614;47.576;7.524;2024-03-02T13:15:01;1.00;;;1.00;;
67816;SDS011;54614;47.576;7.524;2024-03-02T13:17:29;1.00;;;1.00;;
67816;SDS011;54614;47.576;7.524;2024-03-02T13:19:55;1.00;;;1.00;;
67816;SDS011;54614;47.576;7.524;2024-03-02T13:22:22;1.10;;;1.10;;
67816;SDS011;54614;47.576;7.524;2024-03-02T13:24:49;1.20;;;1.20;;
67816;SDS011;54614;47.576;7.524;2024-03-02T13:27:16;0.90;;;0.90;;
67816;SDS011;54614;47.576;7.524;2024-03-02T13:29:46;1.10;;;1.10;;
67816;SDS011;54614;47.576;7.524;2024-03-02T13:32:13;1.07;;;1.07;;
67816;SDS011;54614;47.576;7.524;2024-03-02T13:34:40;1.00;;;1.00;;
67816;SDS011;54614;47.576;7.524;2024-03-02T13:37:06;0.90;;;0.90;;
67816;SDS011;54614;47.576;7.524;2024-03-02T13:39:33;0.97;;;0.97;;
67816;SDS011;54614;47.576;7.524;2024-03-02T13:42:04;1.10;;;1.10;;
67816;SDS011;54614;47.576;7.524;2024-03-02T13:44:34;1.17;;;1.17;;
67816;SDS011;54614;47.576;7.524;2024-03-02T13:47:01;1.00;;;1.00;;
67816;SDS011;54614;47.576;7.524;2024-03-02T13:49:28;1.00;;;1.00;;
67816;SDS011;54614;47.576;7.524;2024-03-02T13:51:59;1.10;;;1.10;;
67816;SDS011;54614;47.576;7.524;2024-03-02T13:54:28;0.97;;;0.97;;
67816;SDS011;54614;47.576;7.524;2024-03-02T13:56:55;1.03;;;1.03;;
67816;SDS011;54614;47.576;7.524;2024-03-02T13:59:23;1.10;;;1.10;;
67816;SDS011;54614;47.576;7.524;2024-03-02T14:01:50;1.13;;;1.13;;
67816;SDS011;54614;47.576;7.524;2024-03-02T14:04:16;1.10;;;1.10;;
67816;SDS011;54614;47.576;7.524;2024-03-02T14:06:42;1.03;;;1.03;;
67816;SDS011;54614;47.576;7.524;2024-03-02T14:09:09;1.10;;;1.10;;
67816;SDS011;54614;47.576;7.524;2024-03-02T14:11:34;0.90;;;0.90;;
67816;SDS011;54614;47.576;7.524;2024-03-02T14:14:00;1.00;;;1.00;;
67816;SDS011;54614;47.576;7.524;2024-03-02T14:16:27;1.00;;;1.00;;
67816;SDS011;54614;47.576;7.524;2024-03-02T14:18:53;1.00;;;1.00;;
67816;SDS011;54614;47.576;7.524;2024-03-02T14:21:19;1.00;;;1.00;;
67816;SDS011;54614;47.576;7.524;2024-03-02T14:23:45;1.00;;;1.00;;
67816;SDS011;54614;47.576;7.524;2024-03-02T14:26:10;0.90;;;0.90;;
67816;SDS011;54614;47.576;7.524;2024-03-02T14:28:36;1.10;;;1.10;;
67816;SDS011;54614;47.576;7.524;2024-03-02T14:31:02;0.97;;;0.97;;
67816;SDS011;54614;47.576;7.524;2024-03-02T14:33:28;1.10;;;1.10;;
67816;SDS011;54614;47.576;7.524;2024-03-02T14:35:54;1.00;;;1.00;;
67816;SDS011;54614;47.576;7.524;2024-03-02T14:38:20;1.10;;;1.10;;
67816;SDS011;54614;47.576;7.524;2024-03-02T14:40:45;1.07;;;0.97;;
67816;SDS011;54614;47.576;7.524;2024-03-02T14:43:11;1.00;;;1.00;;
67816;SDS011;54614;47.576;7.524;2024-03-02T14:45:37;1.00;;;1.00;;
67816;SDS011;54614;47.576;7.524;2024-03-02T14:48:03;0.90;;;0.90;;
67816;SDS011;54614;47.576;7.524;2024-03-02T14:50:30;1.00;;;1.00;;
67816;SDS011;54614;47.576;7.524;2024-03-02T14:52:55;1.07;;;1.07;;
67816;SDS011;54614;47.576;7.524;2024-03-02T14:55:25;0.90;;;0.90;;
67816;SDS011;54614;47.576;7.524;2024-03-02T14:57:51;1.00;;;1.00;;
67816;SDS011;54614;47.576;7.524;2024-03-02T15:00:16;0.90;;;0.90;;
67816;SDS011;54614;47.576;7.524;2024-03-02T15:02:43;1.00;;;1.00;;
67816;SDS011;54614;47.576;7.524;2024-03-02T15:05:09;1.00;;;1.00;;